메인 페이지
METAR-TAF:

METAR-TAF

공항 :

니아메, 니제르

위도: 13-29N, 경도: 002-10E, 고도: 223m

현재 날씨관측

예보는 1 시간 6분 전, 04:00시(UTC)에 발표되었습니다.
동남동4kt풍과 풍을 오가는
온도 24°C
습도 18%
기압 1011 hPa
시정 10km 이상
1500m 미만 상공 구름 및 적란운 없음

METAR: DRRN 150400Z 12004KT 090V180 CAVOK 24/M02 Q1011

시각: 06:06 (05:06 UTC)

예보

예보는 6 시간 6분 전, 23:00시(UTC)에 발표되었습니다.
예보 대상 시간: 15일 00시부터 16일 06시까지 (UTC)
북동6kt
시정 10km 이상
1500m 미만 상공 구름 및 적란운 없음
일시적
15일 06시부터 15일 09시까지 (UTC)
시정: 4000m
황사
일시적
15일 08시부터 15일 13시까지 (UTC)
18kt
시정: 4500m
날린먼지
일시적
15일 17시부터 15일 20시까지 (UTC)
시정: 4000m
황사

TAF: DRRN 142300Z 1500/1606 04006KT CAVOK TEMPO 1506/1509 4000 DU TEMPO 1508/1513 10018KT 4500 BLDU TEMPO 1517/1520 4000 DU

4,000개 이상의 공항 관측 자료 및 예보 (METAR 및 TAF 보고).

지도상에서 검색 가능한 기상관측소가 노란 점과 빨간 점으로 표시되어 있습니다.

기상관측소 명을 보려면 표시 위로 마우스를 이동하세요.

날씨 관측과 예보를 보려면 클릭하세요.

지도 변경 : 확대하려면 엑스 표시가 있는 녹색 버튼, 축소하려면 빼기 표시가 있는 녹색 버튼, 다음 페이지의 지도를 보려면 녹색 화살표를 클릭하세요.


METAR-TAF: